Terminal Aerodrome Forecast
Issued by NWS

Home | Current Version | Previous Version | Text Only | Print | Product List | Glossary On
Versions: 1 2 3 4 5 6 7 8 9 10 11 12 13 14 15 16 17 18 19 20 21 22 23 24 25 26 27 28 29 30 31 32 33 34 35 36
300
FTUS45 KSLC 061723
TAFPVU
TAF
KPVU 061723Z 0618/0718 00000KT 5SM BR FEW150
     FM062300 VRB05KT P6SM BKN200
     FM070400 00000KT 4SM BR SCT002 SCT200
      AMD LTD TO CLD VIS AND WIND=

USA.gov is the U.S. government's official web portal to all federal, state and local government web resources and services.